sensor_id;sensor_type;location;lat;lon;timestamp;P1;durP1;ratioP1;P2;durP2;ratioP2
73599;SDS011;61877;48.246;9.220;2022-12-16T00:01:46;29.80;;;13.53;;
73599;SDS011;61877;48.246;9.220;2022-12-16T00:04:11;29.63;;;13.63;;
73599;SDS011;61877;48.246;9.220;2022-12-16T00:06:36;30.50;;;13.43;;
73599;SDS011;61877;48.246;9.220;2022-12-16T00:09:02;29.87;;;13.37;;
73599;SDS011;61877;48.246;9.220;2022-12-16T00:11:27;29.27;;;13.15;;
73599;SDS011;61877;48.246;9.220;2022-12-16T00:13:54;30.63;;;13.17;;
73599;SDS011;61877;48.246;9.220;2022-12-16T00:16:20;31.15;;;14.02;;
73599;SDS011;61877;48.246;9.220;2022-12-16T00:18:45;33.83;;;13.47;;
73599;SDS011;61877;48.246;9.220;2022-12-16T00:21:12;29.80;;;14.02;;
73599;SDS011;61877;48.246;9.220;2022-12-16T00:23:37;29.27;;;13.05;;
73599;SDS011;61877;48.246;9.220;2022-12-16T00:26:03;31.10;;;13.75;;
73599;SDS011;61877;48.246;9.220;2022-12-16T00:28:29;30.43;;;13.23;;
73599;SDS011;61877;48.246;9.220;2022-12-16T00:30:56;31.83;;;13.32;;
73599;SDS011;61877;48.246;9.220;2022-12-16T00:33:23;32.85;;;14.20;;
73599;SDS011;61877;48.246;9.220;2022-12-16T00:35:50;31.60;;;13.37;;
73599;SDS011;61877;48.246;9.220;2022-12-16T00:38:16;32.00;;;14.02;;
73599;SDS011;61877;48.246;9.220;2022-12-16T00:40:41;30.00;;;13.70;;
73599;SDS011;61877;48.246;9.220;2022-12-16T00:43:07;33.40;;;13.87;;
73599;SDS011;61877;48.246;9.220;2022-12-16T00:45:33;35.15;;;14.77;;
73599;SDS011;61877;48.246;9.220;2022-12-16T00:48:00;32.03;;;13.93;;
73599;SDS011;61877;48.246;9.220;2022-12-16T00:50:25;33.53;;;14.27;;
73599;SDS011;61877;48.246;9.220;2022-12-16T00:52:51;32.47;;;13.93;;
73599;SDS011;61877;48.246;9.220;2022-12-16T00:55:17;34.45;;;14.05;;
73599;SDS011;61877;48.246;9.220;2022-12-16T00:57:42;31.63;;;13.57;;
73599;SDS011;61877;48.246;9.220;2022-12-16T01:00:08;31.85;;;13.40;;
73599;SDS011;61877;48.246;9.220;2022-12-16T01:02:36;32.72;;;14.15;;
73599;SDS011;61877;48.246;9.220;2022-12-16T01:05:03;33.83;;;13.93;;
73599;SDS011;61877;48.246;9.220;2022-12-16T01:07:29;29.85;;;13.68;;
73599;SDS011;61877;48.246;9.220;2022-12-16T01:09:54;29.97;;;13.20;;
73599;SDS011;61877;48.246;9.220;2022-12-16T01:12:20;31.07;;;12.90;;
73599;SDS011;61877;48.246;9.220;2022-12-16T01:14:45;29.37;;;12.87;;
73599;SDS011;61877;48.246;9.220;2022-12-16T01:17:11;31.17;;;13.75;;
73599;SDS011;61877;48.246;9.220;2022-12-16T01:19:36;31.47;;;13.43;;
73599;SDS011;61877;48.246;9.220;2022-12-16T01:22:03;31.27;;;13.50;;
73599;SDS011;61877;48.246;9.220;2022-12-16T01:24:28;33.85;;;13.77;;
73599;SDS011;61877;48.246;9.220;2022-12-16T01:26:53;31.33;;;13.57;;
73599;SDS011;61877;48.246;9.220;2022-12-16T01:29:19;31.60;;;13.27;;
73599;SDS011;61877;48.246;9.220;2022-12-16T01:31:44;32.97;;;14.40;;
73599;SDS011;61877;48.246;9.220;2022-12-16T01:34:09;36.33;;;14.73;;
73599;SDS011;61877;48.246;9.220;2022-12-16T01:36:35;32.97;;;13.83;;
73599;SDS011;61877;48.246;9.220;2022-12-16T01:39:02;31.43;;;13.60;;
73599;SDS011;61877;48.246;9.220;2022-12-16T01:41:27;29.13;;;13.35;;
73599;SDS011;61877;48.246;9.220;2022-12-16T01:46:37;34.65;;;13.85;;
73599;SDS011;61877;48.246;9.220;2022-12-16T01:49:04;35.58;;;13.55;;
73599;SDS011;61877;48.246;9.220;2022-12-16T01:51:33;32.93;;;13.73;;
73599;SDS011;61877;48.246;9.220;2022-12-16T01:54:04;33.15;;;13.48;;
73599;SDS011;61877;48.246;9.220;2022-12-16T01:56:33;31.48;;;12.77;;
73599;SDS011;61877;48.246;9.220;2022-12-16T01:59:03;30.50;;;12.77;;
73599;SDS011;61877;48.246;9.220;2022-12-16T02:01:29;31.38;;;14.15;;
73599;SDS011;61877;48.246;9.220;2022-12-16T02:03:55;32.83;;;13.53;;
73599;SDS011;61877;48.246;9.220;2022-12-16T02:06:22;32.40;;;14.00;;
73599;SDS011;61877;48.246;9.220;2022-12-16T02:08:48;28.83;;;13.07;;
73599;SDS011;61877;48.246;9.220;2022-12-16T02:11:23;28.80;;;11.90;;
73599;SDS011;61877;48.246;9.220;2022-12-16T02:14:02;27.63;;;12.30;;
73599;SDS011;61877;48.246;9.220;2022-12-16T02:16:42;30.08;;;13.35;;
73599;SDS011;61877;48.246;9.220;2022-12-16T02:19:23;26.97;;;12.27;;
73599;SDS011;61877;48.246;9.220;2022-12-16T02:22:07;27.33;;;12.00;;
73599;SDS011;61877;48.246;9.220;2022-12-16T02:28:02;26.75;;;12.10;;
73599;SDS011;61877;48.246;9.220;2022-12-16T02:30:43;26.73;;;11.95;;
73599;SDS011;61877;48.246;9.220;2022-12-16T02:33:28;27.80;;;11.87;;
73599;SDS011;61877;48.246;9.220;2022-12-16T02:36:05;25.33;;;11.88;;
73599;SDS011;61877;48.246;9.220;2022-12-16T02:38:37;25.10;;;11.77;;
73599;SDS011;61877;48.246;9.220;2022-12-16T02:41:11;26.42;;;12.77;;
73599;SDS011;61877;48.246;9.220;2022-12-16T02:43:49;26.58;;;11.98;;
73599;SDS011;61877;48.246;9.220;2022-12-16T02:46:20;25.60;;;12.10;;
73599;SDS011;61877;48.246;9.220;2022-12-16T02:48:47;24.48;;;11.63;;
73599;SDS011;61877;48.246;9.220;2022-12-16T02:51:13;27.80;;;12.30;;
73599;SDS011;61877;48.246;9.220;2022-12-16T02:53:38;26.15;;;12.95;;
73599;SDS011;61877;48.246;9.220;2022-12-16T02:56:09;25.90;;;12.50;;
73599;SDS011;61877;48.246;9.220;2022-12-16T02:58:46;26.67;;;11.60;;
73599;SDS011;61877;48.246;9.220;2022-12-16T03:01:22;26.60;;;12.57;;
73599;SDS011;61877;48.246;9.220;2022-12-16T03:03:53;29.23;;;12.63;;
73599;SDS011;61877;48.246;9.220;2022-12-16T03:06:24;29.10;;;13.30;;
73599;SDS011;61877;48.246;9.220;2022-12-16T03:08:55;27.25;;;13.18;;
73599;SDS011;61877;48.246;9.220;2022-12-16T03:11:23;25.02;;;12.15;;
73599;SDS011;61877;48.246;9.220;2022-12-16T03:13:53;24.77;;;12.23;;
73599;SDS011;61877;48.246;9.220;2022-12-16T03:16:21;27.42;;;12.63;;
73599;SDS011;61877;48.246;9.220;2022-12-16T03:18:51;27.95;;;12.63;;
73599;SDS011;61877;48.246;9.220;2022-12-16T03:21:21;28.30;;;12.90;;
73599;SDS011;61877;48.246;9.220;2022-12-16T03:23:50;28.65;;;12.63;;
73599;SDS011;61877;48.246;9.220;2022-12-16T03:26:19;26.70;;;12.83;;
73599;SDS011;61877;48.246;9.220;2022-12-16T03:28:49;30.65;;;12.82;;
73599;SDS011;61877;48.246;9.220;2022-12-16T03:31:24;28.50;;;13.48;;
73599;SDS011;61877;48.246;9.220;2022-12-16T03:33:57;27.67;;;12.55;;
73599;SDS011;61877;48.246;9.220;2022-12-16T03:36:28;29.45;;;13.27;;
73599;SDS011;61877;48.246;9.220;2022-12-16T03:38:58;27.47;;;12.63;;
73599;SDS011;61877;48.246;9.220;2022-12-16T03:41:25;25.58;;;12.48;;
73599;SDS011;61877;48.246;9.220;2022-12-16T03:43:53;26.98;;;12.80;;
73599;SDS011;61877;48.246;9.220;2022-12-16T03:46:20;27.10;;;12.95;;
73599;SDS011;61877;48.246;9.220;2022-12-16T03:48:47;28.27;;;12.30;;
73599;SDS011;61877;48.246;9.220;2022-12-16T03:51:14;27.80;;;12.38;;
73599;SDS011;61877;48.246;9.220;2022-12-16T03:53:40;27.03;;;12.43;;
73599;SDS011;61877;48.246;9.220;2022-12-16T03:56:06;25.15;;;12.05;;
73599;SDS011;61877;48.246;9.220;2022-12-16T03:58:32;29.00;;;13.67;;
73599;SDS011;61877;48.246;9.220;2022-12-16T04:00:57;28.65;;;13.23;;
73599;SDS011;61877;48.246;9.220;2022-12-16T04:03:23;28.53;;;13.13;;
73599;SDS011;61877;48.246;9.220;2022-12-16T04:05:49;28.83;;;12.60;;
73599;SDS011;61877;48.246;9.220;2022-12-16T04:08:15;28.40;;;13.00;;
73599;SDS011;61877;48.246;9.220;2022-12-16T04:10:40;30.33;;;13.20;;
73599;SDS011;61877;48.246;9.220;2022-12-16T04:13:07;28.67;;;12.90;;
73599;SDS011;61877;48.246;9.220;2022-12-16T04:15:33;27.90;;;12.50;;
73599;SDS011;61877;48.246;9.220;2022-12-16T04:17:59;26.93;;;12.57;;
73599;SDS011;61877;48.246;9.220;2022-12-16T04:20:26;25.00;;;10.85;;
73599;SDS011;61877;48.246;9.220;2022-12-16T04:22:57;26.88;;;13.32;;
73599;SDS011;61877;48.246;9.220;2022-12-16T04:25:23;26.88;;;13.20;;
73599;SDS011;61877;48.246;9.220;2022-12-16T04:27:52;27.75;;;13.02;;
73599;SDS011;61877;48.246;9.220;2022-12-16T04:30:18;27.60;;;12.67;;
73599;SDS011;61877;48.246;9.220;2022-12-16T04:32:44;26.05;;;13.05;;
73599;SDS011;61877;48.246;9.220;2022-12-16T04:35:10;27.83;;;12.30;;
73599;SDS011;61877;48.246;9.220;2022-12-16T04:37:35;26.70;;;12.73;;
73599;SDS011;61877;48.246;9.220;2022-12-16T04:40:02;27.07;;;12.73;;
73599;SDS011;61877;48.246;9.220;2022-12-16T04:42:28;25.58;;;12.15;;
73599;SDS011;61877;48.246;9.220;2022-12-16T04:44:54;24.85;;;12.63;;
73599;SDS011;61877;48.246;9.220;2022-12-16T04:47:20;25.77;;;12.43;;
73599;SDS011;61877;48.246;9.220;2022-12-16T04:49:45;27.77;;;12.40;;
73599;SDS011;61877;48.246;9.220;2022-12-16T04:52:10;25.88;;;12.57;;
73599;SDS011;61877;48.246;9.220;2022-12-16T04:54:36;27.63;;;13.00;;
73599;SDS011;61877;48.246;9.220;2022-12-16T04:57:03;27.52;;;13.00;;
73599;SDS011;61877;48.246;9.220;2022-12-16T04:59:29;26.83;;;12.30;;
73599;SDS011;61877;48.246;9.220;2022-12-16T05:01:54;26.63;;;12.70;;
73599;SDS011;61877;48.246;9.220;2022-12-16T05:04:19;29.57;;;13.57;;
73599;SDS011;61877;48.246;9.220;2022-12-16T05:06:45;26.53;;;12.83;;
73599;SDS011;61877;48.246;9.220;2022-12-16T05:09:10;28.00;;;13.10;;
73599;SDS011;61877;48.246;9.220;2022-12-16T05:11:35;27.77;;;13.90;;
73599;SDS011;61877;48.246;9.220;2022-12-16T05:14:02;25.83;;;12.73;;
73599;SDS011;61877;48.246;9.220;2022-12-16T05:16:28;27.27;;;12.27;;
73599;SDS011;61877;48.246;9.220;2022-12-16T05:18:54;26.17;;;11.98;;
73599;SDS011;61877;48.246;9.220;2022-12-16T05:21:19;29.53;;;12.97;;
73599;SDS011;61877;48.246;9.220;2022-12-16T05:23:44;30.20;;;13.67;;
73599;SDS011;61877;48.246;9.220;2022-12-16T05:26:10;31.83;;;14.17;;
73599;SDS011;61877;48.246;9.220;2022-12-16T05:28:35;28.63;;;13.80;;
73599;SDS011;61877;48.246;9.220;2022-12-16T05:31:02;30.87;;;14.00;;
73599;SDS011;61877;48.246;9.220;2022-12-16T05:33:28;29.50;;;14.15;;
73599;SDS011;61877;48.246;9.220;2022-12-16T05:35:53;29.47;;;14.43;;
73599;SDS011;61877;48.246;9.220;2022-12-16T05:38:19;31.17;;;14.97;;
73599;SDS011;61877;48.246;9.220;2022-12-16T05:40:44;29.35;;;14.15;;
73599;SDS011;61877;48.246;9.220;2022-12-16T05:43:09;29.77;;;13.67;;
73599;SDS011;61877;48.246;9.220;2022-12-16T05:45:35;29.37;;;13.80;;
73599;SDS011;61877;48.246;9.220;2022-12-16T05:48:02;32.97;;;15.17;;
73599;SDS011;61877;48.246;9.220;2022-12-16T05:50:27;30.77;;;14.23;;
73599;SDS011;61877;48.246;9.220;2022-12-16T05:52:53;30.30;;;14.40;;
73599;SDS011;61877;48.246;9.220;2022-12-16T05:55:20;34.47;;;14.95;;
73599;SDS011;61877;48.246;9.220;2022-12-16T05:57:47;31.90;;;15.17;;
73599;SDS011;61877;48.246;9.220;2022-12-16T06:00:13;31.08;;;14.85;;
73599;SDS011;61877;48.246;9.220;2022-12-16T06:02:39;33.70;;;14.75;;
73599;SDS011;61877;48.246;9.220;2022-12-16T06:05:06;32.57;;;14.53;;
73599;SDS011;61877;48.246;9.220;2022-12-16T06:07:31;31.92;;;14.60;;
73599;SDS011;61877;48.246;9.220;2022-12-16T06:09:57;34.10;;;14.97;;
73599;SDS011;61877;48.246;9.220;2022-12-16T06:12:22;32.80;;;14.93;;
73599;SDS011;61877;48.246;9.220;2022-12-16T06:14:48;32.72;;;14.80;;
73599;SDS011;61877;48.246;9.220;2022-12-16T06:17:13;32.87;;;15.73;;
73599;SDS011;61877;48.246;9.220;2022-12-16T06:19:39;31.93;;;14.40;;
73599;SDS011;61877;48.246;9.220;2022-12-16T06:22:06;31.50;;;14.38;;
73599;SDS011;61877;48.246;9.220;2022-12-16T06:24:31;33.03;;;14.90;;
73599;SDS011;61877;48.246;9.220;2022-12-16T06:26:56;31.80;;;13.82;;
73599;SDS011;61877;48.246;9.220;2022-12-16T06:29:22;31.10;;;14.13;;
73599;SDS011;61877;48.246;9.220;2022-12-16T06:31:47;35.87;;;15.43;;
73599;SDS011;61877;48.246;9.220;2022-12-16T06:34:13;33.00;;;15.17;;
73599;SDS011;61877;48.246;9.220;2022-12-16T06:36:38;32.90;;;15.38;;
73599;SDS011;61877;48.246;9.220;2022-12-16T06:39:05;32.50;;;15.43;;
73599;SDS011;61877;48.246;9.220;2022-12-16T06:41:31;35.58;;;15.60;;
73599;SDS011;61877;48.246;9.220;2022-12-16T06:43:56;33.40;;;15.63;;
73599;SDS011;61877;48.246;9.220;2022-12-16T06:46:21;32.40;;;15.53;;
73599;SDS011;61877;48.246;9.220;2022-12-16T06:48:47;34.53;;;14.90;;
73599;SDS011;61877;48.246;9.220;2022-12-16T06:51:12;34.40;;;15.43;;
73599;SDS011;61877;48.246;9.220;2022-12-16T06:53:38;35.80;;;15.80;;
73599;SDS011;61877;48.246;9.220;2022-12-16T06:56:05;34.63;;;15.85;;
73599;SDS011;61877;48.246;9.220;2022-12-16T06:58:31;35.87;;;15.57;;
73599;SDS011;61877;48.246;9.220;2022-12-16T07:00:56;35.17;;;14.80;;
73599;SDS011;61877;48.246;9.220;2022-12-16T07:03:22;34.20;;;15.00;;
73599;SDS011;61877;48.246;9.220;2022-12-16T07:05:50;32.30;;;14.87;;
73599;SDS011;61877;48.246;9.220;2022-12-16T07:08:16;35.08;;;14.88;;
73599;SDS011;61877;48.246;9.220;2022-12-16T07:10:42;35.50;;;16.00;;
73599;SDS011;61877;48.246;9.220;2022-12-16T07:13:08;34.47;;;15.97;;
73599;SDS011;61877;48.246;9.220;2022-12-16T07:15:34;34.25;;;16.23;;
73599;SDS011;61877;48.246;9.220;2022-12-16T07:17:59;35.17;;;16.60;;
73599;SDS011;61877;48.246;9.220;2022-12-16T07:20:25;36.63;;;16.30;;
73599;SDS011;61877;48.246;9.220;2022-12-16T07:22:50;36.73;;;16.80;;
73599;SDS011;61877;48.246;9.220;2022-12-16T07:25:15;38.63;;;17.10;;
73599;SDS011;61877;48.246;9.220;2022-12-16T07:27:44;38.73;;;16.83;;
73599;SDS011;61877;48.246;9.220;2022-12-16T07:30:11;34.13;;;16.52;;
73599;SDS011;61877;48.246;9.220;2022-12-16T07:32:37;34.70;;;16.02;;
73599;SDS011;61877;48.246;9.220;2022-12-16T07:35:02;35.33;;;17.13;;
73599;SDS011;61877;48.246;9.220;2022-12-16T07:37:28;36.25;;;15.80;;
73599;SDS011;61877;48.246;9.220;2022-12-16T07:39:53;38.00;;;17.07;;
73599;SDS011;61877;48.246;9.220;2022-12-16T07:42:19;35.93;;;16.10;;
73599;SDS011;61877;48.246;9.220;2022-12-16T07:44:44;36.87;;;16.60;;
73599;SDS011;61877;48.246;9.220;2022-12-16T07:47:11;35.35;;;16.30;;
73599;SDS011;61877;48.246;9.220;2022-12-16T07:49:36;38.80;;;17.40;;
73599;SDS011;61877;48.246;9.220;2022-12-16T07:52:02;33.28;;;15.88;;
73599;SDS011;61877;48.246;9.220;2022-12-16T07:54:28;36.87;;;15.90;;
73599;SDS011;61877;48.246;9.220;2022-12-16T07:56:53;33.63;;;16.08;;
73599;SDS011;61877;48.246;9.220;2022-12-16T07:59:18;34.00;;;15.53;;
73599;SDS011;61877;48.246;9.220;2022-12-16T08:01:44;35.20;;;15.47;;
73599;SDS011;61877;48.246;9.220;2022-12-16T08:04:11;33.50;;;15.20;;
73599;SDS011;61877;48.246;9.220;2022-12-16T08:06:36;37.50;;;17.35;;
73599;SDS011;61877;48.246;9.220;2022-12-16T08:09:02;35.93;;;17.13;;
73599;SDS011;61877;48.246;9.220;2022-12-16T08:11:27;33.25;;;16.35;;
73599;SDS011;61877;48.246;9.220;2022-12-16T08:13:52;36.77;;;15.50;;
73599;SDS011;61877;48.246;9.220;2022-12-16T08:16:18;36.60;;;16.33;;
73599;SDS011;61877;48.246;9.220;2022-12-16T08:18:43;34.53;;;16.10;;
73599;SDS011;61877;48.246;9.220;2022-12-16T08:21:10;35.53;;;17.00;;
73599;SDS011;61877;48.246;9.220;2022-12-16T08:23:35;34.83;;;16.37;;
73599;SDS011;61877;48.246;9.220;2022-12-16T08:26:01;37.20;;;16.50;;
73599;SDS011;61877;48.246;9.220;2022-12-16T08:28:26;35.27;;;16.43;;
73599;SDS011;61877;48.246;9.220;2022-12-16T08:30:51;35.03;;;16.13;;
73599;SDS011;61877;48.246;9.220;2022-12-16T08:33:17;34.57;;;16.20;;
73599;SDS011;61877;48.246;9.220;2022-12-16T08:35:43;37.33;;;16.73;;
73599;SDS011;61877;48.246;9.220;2022-12-16T08:38:09;37.13;;;18.27;;
73599;SDS011;61877;48.246;9.220;2022-12-16T08:40:35;36.38;;;17.20;;
73599;SDS011;61877;48.246;9.220;2022-12-16T08:43:00;34.23;;;16.43;;
73599;SDS011;61877;48.246;9.220;2022-12-16T08:45:26;35.30;;;16.10;;
73599;SDS011;61877;48.246;9.220;2022-12-16T08:47:51;36.30;;;17.33;;
73599;SDS011;61877;48.246;9.220;2022-12-16T08:50:17;36.07;;;16.17;;
73599;SDS011;61877;48.246;9.220;2022-12-16T08:52:42;33.33;;;15.63;;
73599;SDS011;61877;48.246;9.220;2022-12-16T08:55:10;37.22;;;15.73;;
73599;SDS011;61877;48.246;9.220;2022-12-16T08:57:35;34.15;;;15.40;;
73599;SDS011;61877;48.246;9.220;2022-12-16T09:00:01;31.57;;;14.90;;
73599;SDS011;61877;48.246;9.220;2022-12-16T09:02:27;30.40;;;15.02;;
73599;SDS011;61877;48.246;9.220;2022-12-16T09:04:53;33.73;;;15.80;;
73599;SDS011;61877;48.246;9.220;2022-12-16T09:14:50;33.47;;;16.02;;
73599;SDS011;61877;48.246;9.220;2022-12-16T09:17:16;32.13;;;14.83;;
73599;SDS011;61877;48.246;9.220;2022-12-16T09:19:41;30.88;;;15.07;;
73599;SDS011;61877;48.246;9.220;2022-12-16T09:22:07;31.70;;;14.93;;
73599;SDS011;61877;48.246;9.220;2022-12-16T09:24:32;31.80;;;14.73;;
73599;SDS011;61877;48.246;9.220;2022-12-16T09:26:58;30.23;;;14.17;;
73599;SDS011;61877;48.246;9.220;2022-12-16T09:29:24;29.23;;;14.43;;
73599;SDS011;61877;48.246;9.220;2022-12-16T09:31:50;26.90;;;13.40;;
73599;SDS011;61877;48.246;9.220;2022-12-16T09:34:16;28.45;;;13.80;;
73599;SDS011;61877;48.246;9.220;2022-12-16T09:36:42;25.13;;;12.10;;
73599;SDS011;61877;48.246;9.220;2022-12-16T09:39:08;28.52;;;13.05;;
73599;SDS011;61877;48.246;9.220;2022-12-16T09:41:37;28.53;;;13.87;;
73599;SDS011;61877;48.246;9.220;2022-12-16T09:44:07;28.15;;;13.98;;
73599;SDS011;61877;48.246;9.220;2022-12-16T09:46:45;29.27;;;13.45;;
73599;SDS011;61877;48.246;9.220;2022-12-16T09:49:21;30.65;;;14.25;;
73599;SDS011;61877;48.246;9.220;2022-12-16T09:51:59;29.67;;;14.03;;
73599;SDS011;61877;48.246;9.220;2022-12-16T09:54:26;29.77;;;13.65;;
73599;SDS011;61877;48.246;9.220;2022-12-16T09:56:58;28.88;;;13.10;;
73599;SDS011;61877;48.246;9.220;2022-12-16T09:59:27;29.20;;;12.85;;
73599;SDS011;61877;48.246;9.220;2022-12-16T10:01:55;34.08;;;14.25;;
73599;SDS011;61877;48.246;9.220;2022-12-16T10:04:23;27.87;;;12.90;;
73599;SDS011;61877;48.246;9.220;2022-12-16T10:06:50;32.42;;;13.93;;
73599;SDS011;61877;48.246;9.220;2022-12-16T10:09:19;30.27;;;14.25;;
73599;SDS011;61877;48.246;9.220;2022-12-16T10:11:52;27.75;;;12.50;;
73599;SDS011;61877;48.246;9.220;2022-12-16T10:14:24;26.88;;;12.73;;
73599;SDS011;61877;48.246;9.220;2022-12-16T10:16:56;30.10;;;13.83;;
73599;SDS011;61877;48.246;9.220;2022-12-16T10:19:37;31.65;;;14.15;;
73599;SDS011;61877;48.246;9.220;2022-12-16T10:22:12;32.80;;;13.82;;
73599;SDS011;61877;48.246;9.220;2022-12-16T10:24:45;31.80;;;13.68;;
73599;SDS011;61877;48.246;9.220;2022-12-16T10:27:23;31.52;;;13.45;;
73599;SDS011;61877;48.246;9.220;2022-12-16T10:29:58;28.40;;;13.63;;
73599;SDS011;61877;48.246;9.220;2022-12-16T10:32:26;31.55;;;14.35;;
73599;SDS011;61877;48.246;9.220;2022-12-16T10:34:57;30.90;;;14.13;;
73599;SDS011;61877;48.246;9.220;2022-12-16T10:37:26;33.50;;;14.55;;
73599;SDS011;61877;48.246;9.220;2022-12-16T10:39:56;34.25;;;14.90;;
73599;SDS011;61877;48.246;9.220;2022-12-16T10:42:25;32.73;;;14.50;;
73599;SDS011;61877;48.246;9.220;2022-12-16T10:44:54;29.83;;;13.45;;
73599;SDS011;61877;48.246;9.220;2022-12-16T10:47:25;28.33;;;11.95;;
73599;SDS011;61877;48.246;9.220;2022-12-16T10:49:54;28.23;;;12.65;;
73599;SDS011;61877;48.246;9.220;2022-12-16T10:52:23;27.52;;;12.90;;
73599;SDS011;61877;48.246;9.220;2022-12-16T10:54:52;25.83;;;11.30;;
73599;SDS011;61877;48.246;9.220;2022-12-16T10:57:26;25.40;;;10.93;;
73599;SDS011;61877;48.246;9.220;2022-12-16T11:00:08;24.85;;;10.90;;
73599;SDS011;61877;48.246;9.220;2022-12-16T11:02:37;25.70;;;11.52;;
73599;SDS011;61877;48.246;9.220;2022-12-16T11:05:05;24.60;;;11.27;;
73599;SDS011;61877;48.246;9.220;2022-12-16T11:07:54;35.00;;;14.40;;
73599;SDS011;61877;48.246;9.220;2022-12-16T11:10:27;29.35;;;12.57;;
73599;SDS011;61877;48.246;9.220;2022-12-16T11:12:55;22.02;;;11.02;;
73599;SDS011;61877;48.246;9.220;2022-12-16T11:15:39;23.45;;;11.20;;
73599;SDS011;61877;48.246;9.220;2022-12-16T11:18:07;22.37;;;10.53;;
73599;SDS011;61877;48.246;9.220;2022-12-16T11:20:34;20.15;;;9.45;;
73599;SDS011;61877;48.246;9.220;2022-12-16T11:23:08;21.58;;;9.63;;
73599;SDS011;61877;48.246;9.220;2022-12-16T11:25:39;32.30;;;14.60;;
73599;SDS011;61877;48.246;9.220;2022-12-16T11:28:09;23.13;;;11.02;;
73599;SDS011;61877;48.246;9.220;2022-12-16T11:30:36;25.57;;;12.33;;
73599;SDS011;61877;48.246;9.220;2022-12-16T11:33:03;22.10;;;10.50;;
73599;SDS011;61877;48.246;9.220;2022-12-16T11:35:36;24.27;;;11.40;;
73599;SDS011;61877;48.246;9.220;2022-12-16T11:38:07;21.53;;;9.90;;
73599;SDS011;61877;48.246;9.220;2022-12-16T11:40:42;21.42;;;10.10;;
73599;SDS011;61877;48.246;9.220;2022-12-16T11:43:08;25.58;;;12.27;;
73599;SDS011;61877;48.246;9.220;2022-12-16T11:45:37;24.77;;;11.40;;
73599;SDS011;61877;48.246;9.220;2022-12-16T11:48:04;24.40;;;11.63;;
73599;SDS011;61877;48.246;9.220;2022-12-16T11:50:37;24.40;;;11.38;;
73599;SDS011;61877;48.246;9.220;2022-12-16T11:53:11;21.70;;;9.33;;
73599;SDS011;61877;48.246;9.220;2022-12-16T11:55:51;25.13;;;10.27;;
73599;SDS011;61877;48.246;9.220;2022-12-16T11:58:20;22.33;;;10.07;;
73599;SDS011;61877;48.246;9.220;2022-12-16T12:00:53;19.58;;;9.38;;
73599;SDS011;61877;48.246;9.220;2022-12-16T12:03:23;22.13;;;10.60;;
73599;SDS011;61877;48.246;9.220;2022-12-16T12:05:53;19.80;;;9.10;;
73599;SDS011;61877;48.246;9.220;2022-12-16T12:08:29;22.58;;;10.52;;
73599;SDS011;61877;48.246;9.220;2022-12-16T12:11:03;21.38;;;9.98;;
73599;SDS011;61877;48.246;9.220;2022-12-16T12:13:41;19.58;;;8.85;;
73599;SDS011;61877;48.246;9.220;2022-12-16T12:16:17;19.67;;;8.88;;
73599;SDS011;61877;48.246;9.220;2022-12-16T12:18:53;21.33;;;9.27;;
73599;SDS011;61877;48.246;9.220;2022-12-16T12:21:25;18.92;;;9.38;;
73599;SDS011;61877;48.246;9.220;2022-12-16T12:23:58;18.38;;;8.82;;
73599;SDS011;61877;48.246;9.220;2022-12-16T12:26:32;20.65;;;9.75;;
73599;SDS011;61877;48.246;9.220;2022-12-16T12:29:02;18.33;;;8.50;;
73599;SDS011;61877;48.246;9.220;2022-12-16T12:31:37;19.63;;;9.03;;
73599;SDS011;61877;48.246;9.220;2022-12-16T12:34:11;19.83;;;9.18;;
73599;SDS011;61877;48.246;9.220;2022-12-16T12:36:49;19.63;;;9.13;;
73599;SDS011;61877;48.246;9.220;2022-12-16T12:39:21;21.05;;;9.65;;
73599;SDS011;61877;48.246;9.220;2022-12-16T12:41:56;21.52;;;10.30;;
73599;SDS011;61877;48.246;9.220;2022-12-16T12:44:34;25.27;;;11.37;;
73599;SDS011;61877;48.246;9.220;2022-12-16T12:47:11;18.85;;;8.43;;
73599;SDS011;61877;48.246;9.220;2022-12-16T12:49:38;20.33;;;9.27;;
73599;SDS011;61877;48.246;9.220;2022-12-16T12:52:09;18.50;;;8.60;;
73599;SDS011;61877;48.246;9.220;2022-12-16T12:54:46;17.73;;;8.00;;
73599;SDS011;61877;48.246;9.220;2022-12-16T12:57:16;18.10;;;9.07;;
73599;SDS011;61877;48.246;9.220;2022-12-16T12:59:48;18.92;;;8.88;;
73599;SDS011;61877;48.246;9.220;2022-12-16T13:02:19;18.60;;;8.95;;
73599;SDS011;61877;48.246;9.220;2022-12-16T13:04:48;19.58;;;9.07;;
73599;SDS011;61877;48.246;9.220;2022-12-16T13:07:16;20.30;;;9.23;;
73599;SDS011;61877;48.246;9.220;2022-12-16T13:09:41;19.73;;;9.17;;
73599;SDS011;61877;48.246;9.220;2022-12-16T13:12:20;21.13;;;9.83;;
73599;SDS011;61877;48.246;9.220;2022-12-16T13:14:54;19.95;;;9.15;;
73599;SDS011;61877;48.246;9.220;2022-12-16T13:17:26;21.27;;;9.00;;
73599;SDS011;61877;48.246;9.220;2022-12-16T13:20:01;20.33;;;8.93;;
73599;SDS011;61877;48.246;9.220;2022-12-16T13:22:28;20.75;;;9.82;;
73599;SDS011;61877;48.246;9.220;2022-12-16T13:24:58;21.70;;;10.13;;
73599;SDS011;61877;48.246;9.220;2022-12-16T13:27:25;21.13;;;9.40;;
73599;SDS011;61877;48.246;9.220;2022-12-16T13:29:59;20.13;;;9.88;;
73599;SDS011;61877;48.246;9.220;2022-12-16T13:32:25;21.80;;;9.98;;
73599;SDS011;61877;48.246;9.220;2022-12-16T13:34:57;22.73;;;11.38;;
73599;SDS011;61877;48.246;9.220;2022-12-16T13:37:23;22.88;;;10.70;;
73599;SDS011;61877;48.246;9.220;2022-12-16T13:39:56;24.43;;;11.57;;
73599;SDS011;61877;48.246;9.220;2022-12-16T13:42:33;24.83;;;11.48;;
73599;SDS011;61877;48.246;9.220;2022-12-16T13:45:16;24.25;;;11.07;;
73599;SDS011;61877;48.246;9.220;2022-12-16T13:47:57;23.77;;;11.38;;
73599;SDS011;61877;48.246;9.220;2022-12-16T13:50:34;24.77;;;10.50;;
73599;SDS011;61877;48.246;9.220;2022-12-16T13:53:02;24.40;;;11.20;;
73599;SDS011;61877;48.246;9.220;2022-12-16T13:55:30;23.58;;;11.32;;
73599;SDS011;61877;48.246;9.220;2022-12-16T13:58:04;29.88;;;12.50;;
73599;SDS011;61877;48.246;9.220;2022-12-16T14:00:36;31.35;;;14.25;;
73599;SDS011;61877;48.246;9.220;2022-12-16T14:03:03;23.45;;;11.65;;
73599;SDS011;61877;48.246;9.220;2022-12-16T14:05:35;25.93;;;11.97;;
73599;SDS011;61877;48.246;9.220;2022-12-16T14:08:08;26.88;;;12.48;;
73599;SDS011;61877;48.246;9.220;2022-12-16T14:10:38;27.92;;;13.73;;
73599;SDS011;61877;48.246;9.220;2022-12-16T14:13:07;25.13;;;12.23;;
73599;SDS011;61877;48.246;9.220;2022-12-16T14:15:40;24.10;;;12.07;;
73599;SDS011;61877;48.246;9.220;2022-12-16T14:18:24;23.83;;;11.77;;
73599;SDS011;61877;48.246;9.220;2022-12-16T14:21:00;23.90;;;11.45;;
73599;SDS011;61877;48.246;9.220;2022-12-16T14:23:28;21.58;;;10.50;;
73599;SDS011;61877;48.246;9.220;2022-12-16T14:25:58;22.60;;;11.27;;
73599;SDS011;61877;48.246;9.220;2022-12-16T14:28:26;22.70;;;10.53;;
73599;SDS011;61877;48.246;9.220;2022-12-16T14:31:01;24.65;;;12.40;;
73599;SDS011;61877;48.246;9.220;2022-12-16T14:33:27;23.95;;;11.55;;
73599;SDS011;61877;48.246;9.220;2022-12-16T14:35:53;21.23;;;10.40;;
73599;SDS011;61877;48.246;9.220;2022-12-16T14:38:23;20.37;;;9.70;;
73599;SDS011;61877;48.246;9.220;2022-12-16T14:40:52;44.58;;;18.13;;
73599;SDS011;61877;48.246;9.220;2022-12-16T14:43:18;22.52;;;11.18;;
73599;SDS011;61877;48.246;9.220;2022-12-16T14:45:48;21.37;;;9.33;;